createdAt,value
2019-04-05T00:00:26.145Z,10.25
2019-04-05T00:00:56.141Z,10.25
2019-04-05T00:01:26.784Z,10.25
2019-04-05T00:01:56.680Z,10.25
2019-04-05T00:02:26.212Z,10.25
2019-04-05T00:02:57.187Z,10.19
2019-04-05T00:03:26.320Z,10.19
2019-04-05T00:03:56.204Z,10.19
2019-04-05T00:04:26.380Z,10.19
2019-04-05T00:04:56.130Z,10.19
2019-04-05T00:05:26.877Z,10.19
2019-04-05T00:05:56.248Z,10.19
2019-04-05T00:06:26.167Z,10.19
2019-04-05T00:06:56.267Z,10.19
2019-04-05T00:07:26.594Z,10.19
2019-04-05T00:07:56.353Z,10.19
2019-04-05T00:08:26.416Z,10.19
2019-04-05T00:08:56.257Z,10.19
2019-04-05T00:09:27.565Z,10.19
2019-04-05T00:09:56.335Z,10.25
2019-04-05T00:10:26.293Z,10.25
2019-04-05T00:10:56.177Z,10.25
2019-04-05T00:11:26.437Z,10.25
2019-04-05T00:11:56.446Z,10.25
2019-04-05T00:12:26.346Z,10.31
2019-04-05T00:12:57.643Z,10.25
2019-04-05T00:13:26.466Z,10.25
2019-04-05T00:13:56.895Z,10.25
2019-04-05T00:14:26.273Z,10.25
2019-04-05T00:14:56.417Z,10.25
2019-04-05T00:15:26.508Z,10.25
2019-04-05T00:15:56.363Z,10.25
2019-04-05T00:16:26.486Z,10.25
2019-04-05T00:16:57.981Z,10.25
2019-04-05T00:17:26.340Z,10.25
2019-04-05T00:17:56.486Z,10.25
2019-04-05T00:18:26.510Z,10.25
2019-04-05T00:18:56.515Z,10.25
2019-04-05T00:19:26.446Z,10.25
2019-04-05T00:19:56.410Z,10.25
2019-04-05T00:20:28.419Z,10.25
2019-04-05T00:20:56.629Z,10.25
2019-04-05T00:21:26.607Z,10.25
2019-04-05T00:21:56.560Z,10.25
2019-04-05T00:22:26.765Z,10.25
2019-04-05T00:22:56.783Z,10.25
2019-04-05T00:23:26.602Z,10.25
2019-04-05T00:23:56.739Z,10.25
2019-04-05T00:24:28.931Z,10.25
2019-04-05T00:24:56.596Z,10.25
2019-04-05T00:25:26.988Z,10.25
2019-04-05T00:25:56.554Z,10.19
2019-04-05T00:26:26.653Z,10.25
2019-04-05T00:26:56.599Z,10.25
2019-04-05T00:27:26.736Z,10.19
2019-04-05T00:27:59.101Z,10.19
2019-04-05T00:28:26.805Z,10.19
2019-04-05T00:28:56.688Z,10.19
2019-04-05T00:29:26.892Z,10.19
2019-04-05T00:29:57.396Z,10.19
2019-04-05T00:30:27.429Z,10.19
2019-04-05T00:30:56.875Z,10.13
2019-04-05T00:31:27.082Z,10.13
2019-04-05T00:31:59.390Z,10.13
2019-04-05T00:32:26.706Z,10.13
2019-04-05T00:32:56.737Z,10.13
2019-04-05T00:33:26.951Z,10.13
2019-04-05T00:33:56.702Z,10.13
2019-04-05T00:34:26.872Z,10.13
2019-04-05T00:34:56.759Z,10.13
2019-04-05T00:35:26.911Z,10.13
2019-04-05T00:35:56.974Z,10.13
2019-04-05T00:36:26.899Z,10.13
2019-04-05T00:36:58.993Z,10.13
2019-04-05T00:37:28.156Z,10.06
2019-04-05T00:37:56.964Z,10.06
2019-04-05T00:38:26.866Z,10.06
2019-04-05T00:38:56.846Z,10.06
2019-04-05T00:39:26.837Z,10.06
2019-04-05T00:39:57.177Z,10.06
2019-04-05T00:40:27.135Z,10.06
2019-04-05T00:40:57.041Z,10.06
2019-04-05T00:41:27.113Z,10.06
2019-04-05T00:41:56.996Z,10.06
2019-04-05T00:42:27.137Z,10.06
2019-04-05T00:42:57.055Z,10
2019-04-05T00:43:27.061Z,10
2019-04-05T00:43:56.901Z,10
2019-04-05T00:44:27.024Z,10
2019-04-05T00:44:58.742Z,10.06
2019-04-05T00:45:28.591Z,10.06
2019-04-05T00:45:56.984Z,10.06
2019-04-05T00:46:27.055Z,10.06
2019-04-05T00:46:56.965Z,10.06
2019-04-05T00:47:27.551Z,10.06
2019-04-05T00:47:57.251Z,10.06
2019-04-05T00:48:27.053Z,10.06
2019-04-05T00:48:58.246Z,10.06
2019-04-05T00:49:27.029Z,10.06
2019-04-05T00:49:57.089Z,10.06
2019-04-05T00:50:27.307Z,10.06
2019-04-05T00:50:57.296Z,10.06
2019-04-05T00:51:27.301Z,10.06
2019-04-05T00:51:57.491Z,10.13
2019-04-05T00:52:28.345Z,10.06
2019-04-05T00:52:59.221Z,10.06
2019-04-05T00:53:27.312Z,10.06
2019-04-05T00:53:57.269Z,10.13
2019-04-05T00:54:27.360Z,10.06
2019-04-05T00:54:57.484Z,10.06
2019-04-05T00:55:27.464Z,10.06
2019-04-05T00:55:57.456Z,10.13
2019-04-05T00:56:29.276Z,10.06
2019-04-05T00:56:57.509Z,10.06
2019-04-05T00:57:27.353Z,10.06
2019-04-05T00:57:57.333Z,10.06
2019-04-05T00:58:28.841Z,10.06
2019-04-05T00:58:57.387Z,10.06
2019-04-05T00:59:27.571Z,10.06
2019-04-05T00:59:57.536Z,10.06
2019-04-05T01:00:27.432Z,10.06
2019-04-05T01:00:57.458Z,10.06
2019-04-05T01:01:27.928Z,10.06
2019-04-05T01:01:57.545Z,10.06
2019-04-05T01:02:27.514Z,10
2019-04-05T01:02:57.643Z,10
2019-04-05T01:03:27.377Z,10
2019-04-05T01:03:57.690Z,10.06
2019-04-05T01:04:27.372Z,10.06
2019-04-05T01:04:57.622Z,10
2019-04-05T01:05:27.542Z,10
2019-04-05T01:05:57.617Z,10.06
2019-04-05T01:06:27.543Z,10
2019-04-05T01:06:57.523Z,10
2019-04-05T01:07:27.653Z,10
2019-04-05T01:07:57.615Z,10
2019-04-05T01:08:27.578Z,10
2019-04-05T01:08:57.585Z,10.06
2019-04-05T01:09:28.097Z,10.06
2019-04-05T01:09:58.276Z,10.06
2019-04-05T01:10:27.760Z,10.06
2019-04-05T01:10:57.837Z,10
2019-04-05T01:11:27.682Z,10
2019-04-05T01:11:57.745Z,10
2019-04-05T01:12:27.638Z,10
2019-04-05T01:12:57.837Z,10
2019-04-05T01:13:28.478Z,10
2019-04-05T01:13:57.798Z,10
2019-04-05T01:14:27.896Z,10
2019-04-05T01:14:57.780Z,10
2019-04-05T01:15:39.919Z,10
2019-04-05T01:15:57.868Z,10
2019-04-05T01:16:27.741Z,10
2019-04-05T01:16:57.940Z,10
2019-04-05T01:17:29.801Z,9.94
2019-04-05T01:17:57.796Z,9.94
2019-04-05T01:18:28.007Z,9.94
2019-04-05T01:18:57.889Z,9.94
2019-04-05T01:19:27.880Z,9.94
2019-04-05T01:19:57.773Z,9.94
2019-04-05T01:20:31.633Z,9.94
2019-04-05T01:20:59.338Z,9.94
2019-04-05T01:21:27.867Z,9.94
2019-04-05T01:21:57.792Z,9.94
2019-04-05T01:22:27.823Z,9.94
2019-04-05T01:22:58.020Z,9.94
2019-04-05T01:23:28.039Z,9.94
2019-04-05T01:23:57.960Z,9.94
2019-04-05T01:24:28.002Z,9.94
2019-04-05T01:25:00.539Z,9.94
2019-04-05T01:25:27.974Z,9.94
2019-04-05T01:25:57.956Z,9.94
2019-04-05T01:26:27.918Z,9.94
2019-04-05T01:26:57.935Z,9.94
2019-04-05T01:27:28.018Z,9.94
2019-04-05T01:27:57.879Z,9.94
2019-04-05T01:28:28.003Z,9.94
2019-04-05T01:28:58.059Z,9.94
2019-04-05T01:29:28.176Z,9.94
2019-04-05T01:29:58.122Z,9.88
2019-04-05T01:30:29.046Z,9.88
2019-04-05T01:30:57.921Z,9.88
2019-04-05T01:31:28.084Z,9.88
2019-04-05T01:32:00.437Z,9.88
2019-04-05T01:32:27.946Z,9.88
2019-04-05T01:32:58.115Z,9.88
2019-04-05T01:33:27.989Z,9.88
2019-04-05T01:33:58.075Z,9.88
2019-04-05T01:34:28.789Z,9.88
2019-04-05T01:34:58.140Z,9.88
2019-04-05T01:35:28.023Z,9.88
2019-04-05T01:35:58.057Z,9.88
2019-04-05T01:36:28.198Z,9.88
2019-04-05T01:36:58.282Z,9.88
2019-04-05T01:37:28.288Z,9.94
2019-04-05T01:38:00.034Z,9.88
2019-04-05T01:38:29.331Z,9.94
2019-04-05T01:38:58.234Z,9.88
2019-04-05T01:39:28.262Z,9.88
2019-04-05T01:39:58.243Z,9.88
2019-04-05T01:40:28.366Z,9.94
2019-04-05T01:40:58.318Z,9.94
2019-04-05T01:41:28.183Z,9.94
2019-04-05T01:41:59.278Z,9.94
2019-04-05T01:42:28.231Z,9.88
2019-04-05T01:43:00.790Z,9.88
2019-04-05T01:43:28.203Z,9.88
2019-04-05T01:43:58.233Z,9.88
2019-04-05T01:44:28.368Z,9.88
2019-04-05T01:44:58.459Z,9.94
2019-04-05T01:45:28.407Z,9.88
2019-04-05T01:46:00.206Z,9.94
2019-04-05T01:46:28.327Z,9.94
2019-04-05T01:46:58.325Z,9.94
2019-04-05T01:47:28.607Z,9.94
2019-04-05T01:47:58.415Z,9.94
2019-04-05T01:48:28.487Z,9.94
2019-04-05T01:48:58.313Z,9.88
2019-04-05T01:49:30.545Z,9.88
2019-04-05T01:49:58.483Z,9.94
2019-04-05T01:50:28.311Z,9.94
2019-04-05T01:50:58.520Z,9.94
2019-04-05T01:51:28.450Z,9.94
2019-04-05T01:51:58.385Z,9.88
2019-04-05T01:52:28.317Z,9.94
2019-04-05T01:52:58.412Z,9.94
2019-04-05T01:53:28.732Z,9.94
2019-04-05T01:53:59.805Z,9.94
2019-04-05T01:54:29.204Z,9.88
2019-04-05T01:54:58.474Z,9.88
2019-04-05T01:55:28.707Z,9.88
2019-04-05T01:55:58.699Z,9.88
2019-04-05T01:56:28.587Z,9.88
2019-04-05T01:56:58.680Z,9.88
2019-04-05T01:57:28.729Z,9.88
2019-04-05T01:57:58.648Z,9.88
2019-04-05T01:58:28.570Z,9.88
2019-04-05T01:58:58.756Z,9.88
2019-04-05T01:59:28.704Z,9.88
2019-04-05T01:59:58.923Z,9.88
2019-04-05T02:00:28.713Z,9.88
2019-04-05T02:00:58.567Z,9.88
2019-04-05T02:01:28.798Z,9.88
2019-04-05T02:01:58.713Z,9.88
2019-04-05T02:02:28.794Z,9.88
2019-04-05T02:02:59.094Z,9.88
2019-04-05T02:03:28.900Z,9.88
2019-04-05T02:03:58.779Z,9.88
2019-04-05T02:04:28.782Z,9.88
2019-04-05T02:05:01.575Z,9.81
2019-04-05T02:05:28.817Z,9.81
2019-04-05T02:05:59.036Z,9.81
2019-04-05T02:06:29.737Z,9.81
2019-04-05T02:06:58.919Z,9.81
2019-04-05T02:07:28.888Z,9.81
2019-04-05T02:07:58.802Z,9.81
2019-04-05T02:08:29.256Z,9.81
2019-04-05T02:08:58.843Z,9.81
2019-04-05T02:09:29.298Z,9.81
2019-04-05T02:09:59.018Z,9.81
2019-04-05T02:10:30.486Z,9.81
2019-04-05T02:10:59.016Z,9.81
2019-04-05T02:11:28.842Z,9.81
2019-04-05T02:11:58.887Z,9.88
2019-04-05T02:12:29.005Z,9.81
2019-04-05T02:12:58.945Z,9.81
2019-04-05T02:13:29.019Z,9.81
2019-04-05T02:14:00.004Z,9.81
2019-04-05T02:14:29.024Z,9.81
2019-04-05T02:14:58.998Z,9.81
2019-04-05T02:15:28.831Z,9.81
2019-04-05T02:16:05.911Z,9.81
2019-04-05T02:16:29.044Z,9.81
2019-04-05T02:16:59.093Z,9.81
2019-04-05T02:17:29.144Z,9.75
2019-04-05T02:18:00.139Z,9.75
2019-04-05T02:18:29.055Z,9.75
2019-04-05T02:18:59.018Z,9.75
2019-04-05T02:19:29.085Z,9.75
2019-04-05T02:19:59.245Z,9.75
2019-04-05T02:20:29.178Z,9.75
2019-04-05T02:20:59.189Z,9.75
2019-04-05T02:21:30.613Z,9.75
2019-04-05T02:21:59.094Z,9.75
2019-04-05T02:22:29.136Z,9.75
2019-04-05T02:22:59.129Z,9.69
2019-04-05T02:23:29.034Z,9.75
2019-04-05T02:23:59.214Z,9.75
2019-04-05T02:24:29.149Z,9.75
2019-04-05T02:24:59.041Z,9.69
2019-04-05T02:25:31.835Z,9.75
2019-04-05T02:25:59.292Z,9.75
2019-04-05T02:26:29.290Z,9.75
2019-04-05T02:26:59.551Z,9.75
2019-04-05T02:27:31.899Z,9.75
2019-04-05T02:27:59.230Z,9.75
2019-04-05T02:28:29.377Z,9.75
2019-04-05T02:29:01.578Z,9.75
2019-04-05T02:29:29.455Z,9.75
2019-04-05T02:29:59.545Z,9.75
2019-04-05T02:30:29.534Z,9.75
2019-04-05T02:30:59.742Z,9.69
2019-04-05T02:31:29.567Z,9.69
2019-04-05T02:31:59.482Z,9.69
2019-04-05T02:32:29.517Z,9.69
2019-04-05T02:33:02.516Z,9.69
2019-04-05T02:33:29.506Z,9.69
2019-04-05T02:33:59.573Z,9.69
2019-04-05T02:34:29.462Z,9.69
2019-04-05T02:34:59.453Z,9.69
2019-04-05T02:35:29.512Z,9.69
2019-04-05T02:35:59.499Z,9.69
2019-04-05T02:36:33.034Z,9.69
2019-04-05T02:36:59.715Z,9.69
2019-04-05T02:37:29.822Z,9.69
2019-04-05T02:38:00.518Z,9.69
2019-04-05T02:38:29.959Z,9.69
2019-04-05T02:38:59.511Z,9.69
2019-04-05T02:39:29.644Z,9.69
2019-04-05T02:39:59.587Z,9.69
2019-04-05T02:40:29.758Z,9.69
2019-04-05T02:40:59.438Z,9.69
2019-04-05T02:41:29.526Z,9.69
2019-04-05T02:41:59.643Z,9.69
2019-04-05T02:42:29.581Z,9.69
2019-04-05T02:42:59.589Z,9.69
2019-04-05T02:43:29.782Z,9.63
2019-04-05T02:43:59.711Z,9.63
2019-04-05T02:44:29.660Z,9.63
2019-04-05T02:44:59.637Z,9.63
2019-04-05T02:45:29.794Z,9.63
2019-04-05T02:46:00.748Z,9.63
2019-04-05T02:46:29.820Z,9.63
2019-04-05T02:46:59.888Z,9.56
2019-04-05T02:47:29.743Z,9.56
2019-04-05T02:47:59.744Z,9.56
2019-04-05T02:48:29.933Z,9.5
2019-04-05T02:48:59.993Z,9.5
2019-04-05T02:49:31.280Z,9.44
2019-04-05T02:50:00.040Z,9.44
2019-04-05T02:50:29.912Z,9.38
2019-04-05T02:50:59.809Z,9.38
2019-04-05T02:51:29.995Z,9.31
2019-04-05T02:51:59.813Z,9.31
2019-04-05T02:52:29.878Z,9.31
2019-04-05T02:52:59.872Z,9.31
2019-04-05T02:53:32.207Z,9.31
2019-04-05T02:54:00.886Z,9.25
2019-04-05T02:54:29.891Z,9.25
2019-04-05T02:55:00.082Z,9.25
2019-04-05T02:55:29.895Z,9.25
2019-04-05T02:56:02.907Z,9.25
2019-04-05T02:56:29.956Z,9.19
2019-04-05T02:57:00.264Z,9.13
2019-04-05T02:57:31.377Z,9.13
2019-04-05T02:57:59.884Z,9.13
2019-04-05T02:58:30.099Z,9.06
2019-04-05T02:59:00.154Z,9.13
2019-04-05T02:59:30.267Z,9.06
2019-04-05T03:00:00.739Z,9.06
2019-04-05T03:00:30.182Z,9.06
2019-04-05T03:01:01.819Z,9.13
2019-04-05T03:01:30.570Z,9.06
2019-04-05T03:02:00.321Z,9.06
2019-04-05T03:02:30.345Z,9.06
2019-04-05T03:03:00.219Z,9.06
2019-04-05T03:03:30.298Z,9.06
2019-04-05T03:04:00.187Z,9.06
2019-04-05T03:04:30.198Z,9.06
2019-04-05T03:05:00.863Z,9.06
2019-04-05T03:05:30.132Z,9.06
2019-04-05T03:06:00.222Z,9.06
2019-04-05T03:06:30.148Z,9.06
2019-04-05T03:07:00.372Z,9.06
2019-04-05T03:07:30.421Z,9.06
2019-04-05T03:08:00.342Z,9.06
2019-04-05T03:08:32.753Z,9.06
2019-04-05T03:09:01.426Z,9.06
2019-04-05T03:09:30.435Z,9.06
2019-04-05T03:10:00.569Z,9
2019-04-05T03:10:30.661Z,9
2019-04-05T03:11:00.479Z,9
2019-04-05T03:11:32.694Z,9
2019-04-05T03:12:00.379Z,9
2019-04-05T03:12:32.438Z,9
2019-04-05T03:13:00.481Z,9.06
2019-04-05T03:13:30.425Z,9
2019-04-05T03:14:00.575Z,9
2019-04-05T03:14:30.594Z,9.06
2019-04-05T03:15:00.663Z,9.06
2019-04-05T03:15:30.359Z,9.06
2019-04-05T03:16:00.534Z,9.06
2019-04-05T03:16:40.531Z,9.06
2019-04-05T03:17:00.481Z,9.06
2019-04-05T03:17:30.480Z,9.06
2019-04-05T03:18:00.438Z,9.06
2019-04-05T03:18:30.359Z,9.06
2019-04-05T03:19:00.418Z,9.06
2019-04-05T03:19:30.582Z,9.06
2019-04-05T03:20:03.060Z,9.13
2019-04-05T03:20:30.354Z,9.06
2019-04-05T03:21:00.443Z,9.13
2019-04-05T03:21:30.498Z,9.13
2019-04-05T03:22:01.142Z,9.13
2019-04-05T03:22:30.634Z,9.13
2019-04-05T03:23:00.441Z,9.19
2019-04-05T03:23:30.573Z,9.19
2019-04-05T03:24:00.595Z,9.19
2019-04-05T03:24:30.925Z,9.19
2019-04-05T03:25:00.734Z,9.19
2019-04-05T03:25:30.728Z,9.19
2019-04-05T03:26:00.952Z,9.19
2019-04-05T03:26:30.660Z,9.19
2019-04-05T03:27:00.573Z,9.19
2019-04-05T03:27:30.684Z,9.25
2019-04-05T03:28:00.651Z,9.25
2019-04-05T03:28:30.740Z,9.25
2019-04-05T03:29:00.800Z,9.25
2019-04-05T03:29:30.857Z,9.25
2019-04-05T03:30:00.828Z,9.25
2019-04-05T03:30:30.699Z,9.25
2019-04-05T03:31:00.707Z,9.25
2019-04-05T03:31:30.840Z,9.25
2019-04-05T03:32:00.914Z,9.25
2019-04-05T03:32:30.939Z,9.25
2019-04-05T03:33:03.475Z,9.25
2019-04-05T03:33:31.172Z,9.25
2019-04-05T03:34:01.024Z,9.25
2019-04-05T03:34:31.041Z,9.25
2019-04-05T03:35:00.857Z,9.25
2019-04-05T03:35:30.871Z,9.25
2019-04-05T03:36:00.954Z,9.25
2019-04-05T03:36:30.857Z,9.19
2019-04-05T03:37:01.386Z,9.19
2019-04-05T03:37:31.010Z,9.19
2019-04-05T03:38:00.877Z,9.19
2019-04-05T03:38:30.916Z,9.19
2019-04-05T03:39:01.057Z,9.19
2019-04-05T03:39:30.825Z,9.19
2019-04-05T03:40:01.126Z,9.25
2019-04-05T03:40:30.921Z,9.19
2019-04-05T03:41:02.051Z,9.19
2019-04-05T03:41:31.016Z,9.25
2019-04-05T03:42:00.858Z,9.25
2019-04-05T03:42:30.886Z,9.19
2019-04-05T03:43:01.037Z,9.19
2019-04-05T03:43:31.122Z,9.19
2019-04-05T03:44:05.012Z,9.19
2019-04-05T03:44:32.402Z,9.13
2019-04-05T03:45:00.986Z,9.13
2019-04-05T03:45:31.234Z,9.13
2019-04-05T03:46:00.914Z,9.13
2019-04-05T03:46:31.169Z,9.13
2019-04-05T03:47:01.241Z,9.13
2019-04-05T03:47:31.254Z,9.13
2019-04-05T03:48:01.327Z,9.13
2019-04-05T03:48:32.772Z,9.13
2019-04-05T03:49:01.073Z,9.06
2019-04-05T03:49:31.125Z,9.06
2019-04-05T03:50:01.497Z,9.13
2019-04-05T03:50:31.302Z,9.06
2019-04-05T03:51:01.578Z,9.06
2019-04-05T03:51:31.198Z,9.06
2019-04-05T03:52:03.294Z,9.06
2019-04-05T03:52:31.206Z,9.06
2019-04-05T03:53:01.118Z,9
2019-04-05T03:53:31.429Z,9
2019-04-05T03:54:01.839Z,8.94
2019-04-05T03:54:31.296Z,8.94
2019-04-05T03:55:01.735Z,8.94
2019-04-05T03:55:31.171Z,8.94
2019-04-05T03:56:04.761Z,8.94
2019-04-05T03:56:31.300Z,8.94
2019-04-05T03:57:01.238Z,8.94
2019-04-05T03:57:31.258Z,8.94
2019-04-05T03:58:01.380Z,8.94
2019-04-05T03:58:31.363Z,8.94
2019-04-05T03:59:01.495Z,8.94
2019-04-05T03:59:34.364Z,8.94
2019-04-05T04:00:01.503Z,8.94
2019-04-05T04:00:31.580Z,9
2019-04-05T04:01:01.336Z,9
2019-04-05T04:01:32.166Z,9
2019-04-05T04:02:01.637Z,9
2019-04-05T04:02:31.596Z,9
2019-04-05T04:03:01.673Z,9
2019-04-05T04:03:31.358Z,8.94
2019-04-05T04:04:01.473Z,8.94
2019-04-05T04:04:31.449Z,8.94
2019-04-05T04:05:01.882Z,8.94
2019-04-05T04:05:32.068Z,8.94
2019-04-05T04:06:01.515Z,8.94
2019-04-05T04:06:33.085Z,8.94
2019-04-05T04:07:01.625Z,8.94
2019-04-05T04:07:31.674Z,8.94
2019-04-05T04:08:01.738Z,8.94
2019-04-05T04:08:31.593Z,9
2019-04-05T04:09:03.032Z,9
2019-04-05T04:09:32.020Z,8.94
2019-04-05T04:10:02.549Z,8.94
2019-04-05T04:10:31.952Z,9
2019-04-05T04:11:01.877Z,8.94
2019-04-05T04:11:31.810Z,8.94
2019-04-05T04:12:01.825Z,8.88
2019-04-05T04:12:31.681Z,8.94
2019-04-05T04:13:03.150Z,8.94
2019-04-05T04:13:31.609Z,8.94
2019-04-05T04:14:01.748Z,8.94
2019-04-05T04:14:31.570Z,8.94
2019-04-05T04:15:02.286Z,8.94
2019-04-05T04:15:31.838Z,8.94
2019-04-05T04:16:01.971Z,8.94
2019-04-05T04:16:34.708Z,8.94
2019-04-05T04:17:11.795Z,8.94
2019-04-05T04:17:32.271Z,8.94
2019-04-05T04:18:02.183Z,8.88
2019-04-05T04:18:32.077Z,8.88
2019-04-05T04:19:02.198Z,8.88
2019-04-05T04:19:31.766Z,8.88
2019-04-05T04:20:02.062Z,8.88
2019-04-05T04:20:32.994Z,8.88
2019-04-05T04:21:02.496Z,8.88
2019-04-05T04:21:31.888Z,8.88
2019-04-05T04:22:01.950Z,8.88
2019-04-05T04:22:31.957Z,8.88
2019-04-05T04:23:02.167Z,8.88
2019-04-05T04:23:31.963Z,8.88
2019-04-05T04:24:04.656Z,8.88
2019-04-05T04:24:33.164Z,8.88
2019-04-05T04:25:02.567Z,8.88
2019-04-05T04:25:31.933Z,8.88
2019-04-05T04:26:04.500Z,8.88
2019-04-05T04:26:31.999Z,8.88
2019-04-05T04:27:02.209Z,8.88
2019-04-05T04:27:31.969Z,8.88
2019-04-05T04:28:04.124Z,8.88
2019-04-05T04:28:32.005Z,8.88
2019-04-05T04:29:02.923Z,8.88
2019-04-05T04:29:31.853Z,8.88
2019-04-05T04:30:03.570Z,8.88
2019-04-05T04:30:32.045Z,8.88
2019-04-05T04:31:02.334Z,8.81
2019-04-05T04:31:35.284Z,8.81
2019-04-05T04:32:03.850Z,8.81
2019-04-05T04:32:32.072Z,8.81
2019-04-05T04:33:02.509Z,8.81
2019-04-05T04:33:32.112Z,8.81
2019-04-05T04:34:02.647Z,8.81
2019-04-05T04:34:32.267Z,8.81
2019-04-05T04:35:02.576Z,8.81
2019-04-05T04:35:34.464Z,8.81
2019-04-05T04:36:02.361Z,8.81
2019-04-05T04:36:32.130Z,8.81
2019-04-05T04:37:02.213Z,8.81
2019-04-05T04:37:32.455Z,8.81
2019-04-05T04:38:02.340Z,8.81
2019-04-05T04:38:32.222Z,8.81
2019-04-05T04:39:02.728Z,8.81
2019-04-05T04:39:34.751Z,8.81
2019-04-05T04:40:03.836Z,8.81
2019-04-05T04:40:32.465Z,8.81
2019-04-05T04:41:02.872Z,8.81
2019-04-05T04:41:32.335Z,8.81
2019-04-05T04:42:02.753Z,8.81
2019-04-05T04:42:32.315Z,8.81
2019-04-05T04:43:05.729Z,8.81
2019-04-05T04:43:32.337Z,8.81
2019-04-05T04:44:02.906Z,8.81
2019-04-05T04:44:32.245Z,8.81
2019-04-05T04:45:11.662Z,8.81
2019-04-05T04:45:32.416Z,8.81
2019-04-05T04:46:03.152Z,8.81
2019-04-05T04:46:32.356Z,8.81
2019-04-05T04:47:04.688Z,8.81
2019-04-05T04:47:32.725Z,8.75
2019-04-05T04:48:03.161Z,8.75
2019-04-05T04:48:32.410Z,8.75
2019-04-05T04:49:03.181Z,8.75
2019-04-05T04:49:32.272Z,8.81
2019-04-05T04:50:03.683Z,8.81
2019-04-05T04:50:38.170Z,8.81
2019-04-05T04:51:03.285Z,8.81
2019-04-05T04:51:32.431Z,8.81
2019-04-05T04:52:03.274Z,8.81
2019-04-05T04:52:32.533Z,8.81
2019-04-05T04:53:03.040Z,8.81
2019-04-05T04:53:32.408Z,8.81
2019-04-05T04:54:02.846Z,8.81
2019-04-05T04:54:32.560Z,8.81
2019-04-05T04:55:03.176Z,8.81
2019-04-05T04:55:32.567Z,8.75
2019-04-05T04:56:02.914Z,8.81
2019-04-05T04:56:32.836Z,8.81
2019-04-05T04:57:02.873Z,8.75
2019-04-05T04:57:32.545Z,8.75
2019-04-05T04:58:02.710Z,8.81
2019-04-05T04:58:32.541Z,8.81
2019-04-05T04:59:02.879Z,8.75
2019-04-05T04:59:32.547Z,8.75
2019-04-05T05:00:03.545Z,8.75
2019-04-05T05:00:32.691Z,8.75
2019-04-05T05:01:03.470Z,8.75
2019-04-05T05:01:32.596Z,8.69
2019-04-05T05:02:03.015Z,8.69
2019-04-05T05:02:32.572Z,8.75
2019-04-05T05:03:02.967Z,8.75
2019-04-05T05:03:32.793Z,8.69
2019-04-05T05:04:04.294Z,8.69
2019-04-05T05:04:32.593Z,8.69
2019-04-05T05:05:03.666Z,8.69
2019-04-05T05:05:32.728Z,8.69
2019-04-05T05:06:03.185Z,8.69
2019-04-05T05:06:32.920Z,8.69
2019-04-05T05:07:03.480Z,8.69
2019-04-05T05:07:34.403Z,8.69
2019-04-05T05:08:03.138Z,8.69
2019-04-05T05:08:32.798Z,8.69
2019-04-05T05:09:03.187Z,8.69
2019-04-05T05:09:32.966Z,8.69
2019-04-05T05:10:04.207Z,8.75
2019-04-05T05:10:32.775Z,8.69
2019-04-05T05:11:13.835Z,8.69
2019-04-05T05:11:34.832Z,8.75
2019-04-05T05:12:05.653Z,8.75
2019-04-05T05:12:32.761Z,8.69
2019-04-05T05:13:03.116Z,8.69
2019-04-05T05:13:32.874Z,8.69
2019-04-05T05:14:03.361Z,8.69
2019-04-05T05:14:32.754Z,8.69
2019-04-05T05:15:06.092Z,8.75
2019-04-05T05:15:32.854Z,8.75
2019-04-05T05:16:03.237Z,8.69
2019-04-05T05:16:32.705Z,8.75
2019-04-05T05:17:03.549Z,8.75
2019-04-05T05:17:38.546Z,8.75
2019-04-05T05:18:03.488Z,8.69
2019-04-05T05:18:33.040Z,8.69
2019-04-05T05:19:05.486Z,8.75
2019-04-05T05:19:32.820Z,8.75
2019-04-05T05:20:03.748Z,8.75
2019-04-05T05:20:32.964Z,8.75
2019-04-05T05:21:03.477Z,8.81
2019-04-05T05:21:32.789Z,8.75
2019-04-05T05:22:03.280Z,8.75
2019-04-05T05:22:35.553Z,8.75
2019-04-05T05:23:03.607Z,8.75
2019-04-05T05:23:33.011Z,8.75
2019-04-05T05:24:03.552Z,8.75
2019-04-05T05:24:34.349Z,8.75
2019-04-05T05:25:04.852Z,8.75
2019-04-05T05:25:33.113Z,8.75
2019-04-05T05:26:03.569Z,8.75
2019-04-05T05:26:33.041Z,8.69
2019-04-05T05:27:03.701Z,8.69
2019-04-05T05:27:33.059Z,8.69
2019-04-05T05:28:03.911Z,8.69
2019-04-05T05:28:33.318Z,8.75
2019-04-05T05:29:03.603Z,8.75
2019-04-05T05:29:33.385Z,8.75
2019-04-05T05:30:04.466Z,8.75
2019-04-05T05:30:33.275Z,8.69
2019-04-05T05:31:03.571Z,8.75
2019-04-05T05:31:33.236Z,8.69
2019-04-05T05:32:04.522Z,8.69
2019-04-05T05:32:33.310Z,8.69
2019-04-05T05:33:03.269Z,8.69
2019-04-05T05:33:33.176Z,8.63
2019-04-05T05:34:09.061Z,8.69
2019-04-05T05:34:33.507Z,8.69
2019-04-05T05:35:03.934Z,8.69
2019-04-05T05:35:33.309Z,8.69
2019-04-05T05:36:04.342Z,8.69
2019-04-05T05:36:33.085Z,8.69
2019-04-05T05:37:03.866Z,8.69
2019-04-05T05:37:33.371Z,8.69
2019-04-05T05:38:03.844Z,8.69
2019-04-05T05:38:33.366Z,8.69
2019-04-05T05:39:03.689Z,8.69
2019-04-05T05:39:34.944Z,8.69
2019-04-05T05:40:05.151Z,8.69
2019-04-05T05:40:34.973Z,8.69
2019-04-05T05:41:03.910Z,8.69
2019-04-05T05:41:33.245Z,8.69
2019-04-05T05:42:03.637Z,8.69
2019-04-05T05:42:33.207Z,8.69
2019-04-05T05:43:03.769Z,8.69
2019-04-05T05:43:34.470Z,8.69
2019-04-05T05:44:03.873Z,8.69
2019-04-05T05:44:34.129Z,8.69
2019-04-05T05:45:04.526Z,8.69
2019-04-05T05:45:33.545Z,8.69
2019-04-05T05:46:03.816Z,8.69
2019-04-05T05:46:33.410Z,8.69
2019-04-05T05:47:06.816Z,8.75
2019-04-05T05:47:35.137Z,8.75
2019-04-05T05:48:03.905Z,8.75
2019-04-05T05:48:33.453Z,8.75
2019-04-05T05:49:04.040Z,8.75
2019-04-05T05:49:33.668Z,8.75
2019-04-05T05:50:04.918Z,8.69
2019-04-05T05:50:33.611Z,8.75
2019-04-05T05:51:05.855Z,8.75
2019-04-05T05:51:33.602Z,8.75
2019-04-05T05:52:04.045Z,8.69
2019-04-05T05:52:33.514Z,8.69
2019-04-05T05:53:04.223Z,8.75
2019-04-05T05:53:33.362Z,8.69
2019-04-05T05:54:04.060Z,8.75
2019-04-05T05:54:37.229Z,8.75
2019-04-05T05:55:05.788Z,8.75
2019-04-05T05:55:33.643Z,8.75
2019-04-05T05:56:06.733Z,8.75
2019-04-05T05:56:33.612Z,8.75
2019-04-05T05:57:04.247Z,8.75
2019-04-05T05:57:33.586Z,8.75
2019-04-05T05:58:04.049Z,8.75
2019-04-05T05:58:35.921Z,8.75
2019-04-05T05:59:03.815Z,8.75
2019-04-05T05:59:33.834Z,8.75
2019-04-05T06:00:04.437Z,8.75
2019-04-05T06:00:34.137Z,8.75
2019-04-05T06:01:04.833Z,8.75
2019-04-05T06:01:33.752Z,8.75
2019-04-05T06:02:08.071Z,8.81
2019-04-05T06:02:36.381Z,8.81
2019-04-05T06:03:06.176Z,8.81
2019-04-05T06:03:33.782Z,8.75
2019-04-05T06:04:04.235Z,8.75
2019-04-05T06:04:34.266Z,8.81
2019-04-05T06:05:05.099Z,8.81
2019-04-05T06:05:33.932Z,8.81
2019-04-05T06:06:07.204Z,8.88
2019-04-05T06:06:33.884Z,8.88
2019-04-05T06:07:07.064Z,8.88
2019-04-05T06:07:34.029Z,8.88
2019-04-05T06:08:04.659Z,8.88
2019-04-05T06:08:33.831Z,8.88
2019-04-05T06:09:04.336Z,8.88
2019-04-05T06:09:33.949Z,8.94
2019-04-05T06:10:07.570Z,8.88
2019-04-05T06:10:34.112Z,8.88
2019-04-05T06:11:04.491Z,8.88
2019-04-05T06:11:33.988Z,8.88
2019-04-05T06:12:05.481Z,8.88
2019-04-05T06:12:33.873Z,8.88
2019-04-05T06:13:06.590Z,8.88
2019-04-05T06:13:34.682Z,8.88
2019-04-05T06:14:04.378Z,8.88
2019-04-05T06:14:34.126Z,8.88
2019-04-05T06:15:04.612Z,8.88
2019-04-05T06:15:34.112Z,8.81
2019-04-05T06:16:04.545Z,8.81
2019-04-05T06:16:45.746Z,8.81
2019-04-05T06:17:05.634Z,8.81
2019-04-05T06:17:34.240Z,8.88
2019-04-05T06:18:05.143Z,8.88
2019-04-05T06:18:34.187Z,8.88
2019-04-05T06:19:04.589Z,8.88
2019-04-05T06:19:34.160Z,8.88
2019-04-05T06:20:04.798Z,8.88
2019-04-05T06:20:34.180Z,8.88
2019-04-05T06:21:06.224Z,8.88
2019-04-05T06:21:34.067Z,8.94
2019-04-05T06:22:04.805Z,8.88
2019-04-05T06:22:34.265Z,8.88
2019-04-05T06:23:04.906Z,8.88
2019-04-05T06:23:34.381Z,8.88
2019-04-05T06:24:05.300Z,8.88
2019-04-05T06:24:35.752Z,8.81
2019-04-05T06:25:05.345Z,8.75
2019-04-05T06:25:34.868Z,8.75
2019-04-05T06:26:05.744Z,8.69
2019-04-05T06:26:38.881Z,8.69
2019-04-05T06:27:09.311Z,8.75
2019-04-05T06:27:39.398Z,8.75
2019-04-05T06:28:11.380Z,8.75
2019-04-05T06:28:41.641Z,8.81
2019-04-05T06:29:13.485Z,8.81
2019-04-05T06:29:42.834Z,8.81
2019-04-05T06:30:12.134Z,8.88
2019-04-05T06:30:42.874Z,8.88
2019-04-05T06:31:14.880Z,8.88
2019-04-05T06:31:42.791Z,8.94
2019-04-05T06:32:13.425Z,8.88
2019-04-05T06:32:45.047Z,8.94
2019-04-05T06:33:11.672Z,8.94
2019-04-05T06:33:42.366Z,8.94
2019-04-05T06:34:14.289Z,8.94
2019-04-05T06:34:42.238Z,9
2019-04-05T06:35:13.786Z,9
2019-04-05T06:35:44.055Z,9
2019-04-05T06:36:12.916Z,9
2019-04-05T06:36:42.234Z,9
2019-04-05T06:37:14.948Z,9.06
2019-04-05T06:37:41.898Z,9.06
2019-04-05T06:38:12.663Z,9.06
2019-04-05T06:38:43.827Z,9.06
2019-04-05T06:39:11.311Z,9.06
2019-04-05T06:39:40.698Z,9.13